createdAt,value
2023-02-18T00:01:03.021Z,10.52
2023-02-18T00:03:30.164Z,10.54
2023-02-18T00:05:56.983Z,10.56
2023-02-18T00:08:23.777Z,10.55
2023-02-18T00:10:50.833Z,10.50
2023-02-18T00:13:17.790Z,10.49
2023-02-18T00:15:44.539Z,10.42
2023-02-18T00:18:11.235Z,10.38
2023-02-18T00:20:39.731Z,10.42
2023-02-18T00:23:06.457Z,10.47
2023-02-18T00:25:33.176Z,10.46
2023-02-18T00:27:59.942Z,10.41
2023-02-18T00:30:28.677Z,10.42
2023-02-18T00:32:55.927Z,10.39
2023-02-18T00:35:23.022Z,10.45
2023-02-18T00:37:52.487Z,10.46
2023-02-18T00:40:20.425Z,10.40
2023-02-18T00:42:47.123Z,10.42
2023-02-18T00:45:14.678Z,10.41
2023-02-18T00:47:41.910Z,10.45
2023-02-18T00:50:10.032Z,10.41
2023-02-18T00:52:36.737Z,10.45
2023-02-18T00:55:03.781Z,10.41
2023-02-18T00:57:30.457Z,10.41
2023-02-18T00:59:57.223Z,10.41
2023-02-18T01:02:23.949Z,10.36
2023-02-18T01:04:50.670Z,10.41
2023-02-18T01:07:17.798Z,10.42
2023-02-18T01:09:44.507Z,10.41
2023-02-18T01:12:11.224Z,10.40
2023-02-18T01:14:38.005Z,10.39
2023-02-18T01:17:05.400Z,10.38
2023-02-18T01:19:32.244Z,10.36
2023-02-18T01:22:00.153Z,10.39
2023-02-18T01:24:27.181Z,10.39
2023-02-18T01:26:53.942Z,10.43
2023-02-18T01:29:20.647Z,10.42
2023-02-18T01:31:47.342Z,10.38
2023-02-18T01:34:15.469Z,10.40
2023-02-18T01:36:42.271Z,10.42
2023-02-18T01:39:09.042Z,10.40
2023-02-18T01:41:35.798Z,10.41
2023-02-18T01:44:29.048Z,10.41
2023-02-18T01:46:56.274Z,10.42
2023-02-18T01:49:28.060Z,10.41
2023-02-18T01:52:01.106Z,10.41
2023-02-18T01:54:34.478Z,10.46
2023-02-18T01:57:21.964Z,10.43
2023-02-18T01:59:53.854Z,10.42
2023-02-18T02:02:24.191Z,10.40
2023-02-18T02:04:51.172Z,10.37
2023-02-18T02:07:21.053Z,10.37
2023-02-18T02:09:50.254Z,10.36
2023-02-18T02:12:32.330Z,10.37
2023-02-18T02:15:10.169Z,10.36
2023-02-18T02:17:57.927Z,10.29
2023-02-18T02:20:40.739Z,10.23
2023-02-18T02:23:41.518Z,10.19
2023-02-18T02:26:50.837Z,10.16
2023-02-18T02:29:38.798Z,10.12
2023-02-18T02:32:42.860Z,10.12
2023-02-18T02:35:18.470Z,10.11
2023-02-18T02:37:54.364Z,10.09
2023-02-18T02:40:33.446Z,10.06
2023-02-18T02:43:18.326Z,10.08
2023-02-18T02:46:12.611Z,10.09
2023-02-18T02:48:42.439Z,10.07
2023-02-18T02:51:33.371Z,10.07
2023-02-18T02:54:20.448Z,10.05
2023-02-18T02:56:47.882Z,10.06
2023-02-18T02:59:25.755Z,10.06
2023-02-18T03:02:08.462Z,10.07
2023-02-18T03:05:00.081Z,10.04
2023-02-18T03:07:38.926Z,10.05
2023-02-18T03:10:08.736Z,10.01
2023-02-18T03:12:56.427Z,10.01
2023-02-18T03:15:57.223Z,9.99
2023-02-18T03:18:38.750Z,10.03
2023-02-18T03:21:16.573Z,10.03
2023-02-18T03:24:13.793Z,10.03
2023-02-18T03:26:47.171Z,10.02
2023-02-18T03:29:17.074Z,10.02
2023-02-18T03:31:47.916Z,10.02
2023-02-18T03:34:25.667Z,10.04
2023-02-18T03:36:53.526Z,10.09
2023-02-18T03:39:23.308Z,10.08
2023-02-18T03:41:50.119Z,10.07
2023-02-18T03:44:16.940Z,10.07
2023-02-18T03:46:45.346Z,10.04
2023-02-18T03:49:13.595Z,10.05
2023-02-18T03:51:41.828Z,10.11
2023-02-18T03:54:09.134Z,10.08
2023-02-18T03:56:36.864Z,10.09
2023-02-18T03:59:04.664Z,10.06
2023-02-18T04:01:32.038Z,10.08
2023-02-18T04:03:58.821Z,10.08
2023-02-18T04:06:25.856Z,10.10
2023-02-18T04:08:52.592Z,10.11
2023-02-18T04:11:19.362Z,10.14
2023-02-18T04:13:46.176Z,10.13
2023-02-18T04:16:12.902Z,10.21
2023-02-18T04:18:39.664Z,10.22
2023-02-18T04:21:06.705Z,10.18
2023-02-18T04:23:33.549Z,10.18
2023-02-18T04:26:00.360Z,10.18
2023-02-18T04:28:27.011Z,10.20
2023-02-18T04:30:53.881Z,10.25
2023-02-18T04:33:20.594Z,10.29
2023-02-18T04:35:47.289Z,10.25
2023-02-18T04:38:14.293Z,10.28
2023-02-18T04:40:40.945Z,10.32
2023-02-18T04:43:07.678Z,10.30
2023-02-18T04:45:34.447Z,10.31
2023-02-18T04:48:01.240Z,10.33
2023-02-18T04:50:28.236Z,10.27
2023-02-18T04:52:54.871Z,10.27
2023-02-18T04:55:21.550Z,10.35
2023-02-18T04:57:48.234Z,10.31
2023-02-18T05:00:18.502Z,10.29
2023-02-18T05:02:45.873Z,10.30
2023-02-18T05:05:13.460Z,10.28
2023-02-18T05:07:41.627Z,10.31
2023-02-18T05:10:11.226Z,10.30
2023-02-18T05:12:37.934Z,10.36
2023-02-18T05:15:05.050Z,10.39
2023-02-18T05:17:31.916Z,10.39
2023-02-18T05:19:58.664Z,10.35
2023-02-18T05:22:25.566Z,10.35
2023-02-18T05:24:52.282Z,10.33
2023-02-18T05:27:19.056Z,10.35
2023-02-18T05:29:45.738Z,10.38
2023-02-18T05:32:12.394Z,10.34
2023-02-18T05:34:39.270Z,10.41
2023-02-18T05:37:06.068Z,10.37
2023-02-18T05:39:32.767Z,10.33
2023-02-18T05:41:59.450Z,10.33
2023-02-18T05:44:32.584Z,10.35
2023-02-18T05:47:02.555Z,10.32
2023-02-18T05:49:30.693Z,10.34
2023-02-18T05:51:57.833Z,10.34
2023-02-18T05:54:25.412Z,10.38
2023-02-18T05:56:52.362Z,10.35
2023-02-18T05:59:19.139Z,10.35
2023-02-18T06:01:46.955Z,10.34
2023-02-18T06:04:14.471Z,10.37
2023-02-18T06:06:41.876Z,10.35
2023-02-18T06:09:09.418Z,10.35
2023-02-18T06:11:36.346Z,10.34
2023-02-18T06:14:03.930Z,10.32
2023-02-18T06:16:31.560Z,10.30
2023-02-18T06:18:58.492Z,10.32
2023-02-18T06:21:25.647Z,10.32
2023-02-18T06:23:52.510Z,10.32
2023-02-18T06:26:19.221Z,10.30
2023-02-18T06:28:46.159Z,10.30
2023-02-18T06:31:12.966Z,10.31
2023-02-18T06:33:39.810Z,10.29
2023-02-18T06:36:09.775Z,10.25
2023-02-18T06:38:38.018Z,10.26
2023-02-18T06:41:05.334Z,10.26
2023-02-18T06:43:32.217Z,10.19
2023-02-18T06:45:59.255Z,10.21
2023-02-18T06:48:26.130Z,10.22
2023-02-18T06:50:52.902Z,10.19
2023-02-18T06:53:19.616Z,10.20
2023-02-18T06:55:46.396Z,10.17
2023-02-18T06:58:13.897Z,10.16
2023-02-18T07:00:41.012Z,10.15
2023-02-18T07:03:08.152Z,10.18
2023-02-18T07:05:34.924Z,10.18
2023-02-18T07:08:02.155Z,10.21
2023-02-18T07:10:28.817Z,10.28
2023-02-18T07:12:55.512Z,10.33
2023-02-18T07:15:24.418Z,10.38
2023-02-18T07:17:52.074Z,10.37
2023-02-18T07:20:20.315Z,10.37
2023-02-18T07:22:47.393Z,10.37
2023-02-18T07:25:14.745Z,10.50
2023-02-18T07:27:41.525Z,10.46
2023-02-18T07:30:08.958Z,10.39
2023-02-18T07:32:36.073Z,10.37
2023-02-18T08:59:41.033Z,10.12
2023-02-18T09:02:09.891Z,10.12
2023-02-18T09:04:37.141Z,10.17
2023-02-18T09:07:04.363Z,10.10
2023-02-18T09:09:31.634Z,10.18
2023-02-18T09:12:01.035Z,10.20
2023-02-18T09:14:28.279Z,10.23
2023-02-18T09:16:58.513Z,10.18
2023-02-18T09:19:25.905Z,10.17
2023-02-18T09:21:53.563Z,10.14
2023-02-18T09:24:21.384Z,10.14
2023-02-18T09:26:50.002Z,10.14
2023-02-18T09:29:20.272Z,10.12
2023-02-18T09:31:47.694Z,10.18
2023-02-18T09:34:15.072Z,10.17
2023-02-18T09:36:42.391Z,10.17
2023-02-18T09:39:09.711Z,10.11
2023-02-18T09:42:07.943Z,10.13
2023-02-18T09:44:53.804Z,10.13
2023-02-18T09:47:37.829Z,10.15
2023-02-18T09:50:34.392Z,10.17
2023-02-18T09:53:08.601Z,10.17
2023-02-18T09:55:39.993Z,10.24
2023-02-18T09:58:15.724Z,10.24
2023-02-18T10:00:47.793Z,10.28
2023-02-18T10:03:24.048Z,10.30
2023-02-18T10:06:26.330Z,10.34
2023-02-18T10:08:55.995Z,10.39
2023-02-18T10:11:42.329Z,10.41
2023-02-18T10:14:15.572Z,10.46
2023-02-18T10:16:46.294Z,10.49
2023-02-18T10:19:26.070Z,10.49
2023-02-18T10:21:54.420Z,10.50
2023-02-18T10:24:44.844Z,10.55
2023-02-18T10:27:20.033Z,10.54
2023-02-18T10:30:14.083Z,10.49
2023-02-18T10:32:46.483Z,10.46
2023-02-18T10:35:39.211Z,10.42
2023-02-18T10:38:20.872Z,10.45
2023-02-18T10:41:05.983Z,10.56
2023-02-18T10:44:05.650Z,10.54
2023-02-18T10:47:04.395Z,10.56
2023-02-18T10:49:53.198Z,10.55
2023-02-18T10:52:21.875Z,10.73
2023-02-18T10:55:05.526Z,10.78
2023-02-18T10:57:33.704Z,10.76
2023-02-18T11:00:27.987Z,10.78
2023-02-18T11:03:10.802Z,10.78
2023-02-18T11:05:40.394Z,10.68
2023-02-18T11:08:11.826Z,10.59
2023-02-18T11:10:43.039Z,10.54
2023-02-18T11:13:14.297Z,10.58
2023-02-18T11:16:04.570Z,10.59
2023-02-18T11:18:44.547Z,10.61
2023-02-18T11:21:32.304Z,10.55
2023-02-18T11:24:20.345Z,10.58
2023-02-18T11:26:47.584Z,10.71
2023-02-18T11:29:29.347Z,10.91
2023-02-18T11:31:57.839Z,11.04
2023-02-18T11:34:30.146Z,11.09
2023-02-18T11:37:13.825Z,10.78
2023-02-18T11:39:47.227Z,10.82
2023-02-18T11:42:17.104Z,10.87
2023-02-18T11:44:58.672Z,10.73
2023-02-18T11:47:35.883Z,10.67
2023-02-18T11:50:09.000Z,10.66
2023-02-18T11:52:39.433Z,10.73
2023-02-18T11:55:14.716Z,10.70
2023-02-18T11:57:49.799Z,10.65
2023-02-18T12:00:41.118Z,10.92
2023-02-18T12:03:54.606Z,10.66
2023-02-18T12:06:44.151Z,10.53
2023-02-18T12:09:24.112Z,10.52
2023-02-18T12:11:58.621Z,10.40
2023-02-18T12:14:27.766Z,10.30
2023-02-18T12:17:16.486Z,10.27
2023-02-18T12:20:12.898Z,10.17
2023-02-18T14:27:42.665Z,9.98
2023-02-18T14:30:29.632Z,9.94
2023-02-18T14:33:01.953Z,9.78
2023-02-18T14:35:39.358Z,9.90
2023-02-18T14:38:43.552Z,9.82
2023-02-18T14:41:21.232Z,9.84
2023-02-18T14:44:07.152Z,9.97
2023-02-18T14:47:12.649Z,9.90
2023-02-18T14:49:45.391Z,9.87
2023-02-18T14:52:53.646Z,9.82
2023-02-18T14:55:30.519Z,9.78
2023-02-18T14:58:04.386Z,9.75
2023-02-18T15:00:34.788Z,9.73
2023-02-18T15:03:02.768Z,9.73
2023-02-18T15:05:33.085Z,9.72
2023-02-18T15:08:04.336Z,9.71
2023-02-18T15:10:40.962Z,9.71
2023-02-18T15:13:15.884Z,9.76
2023-02-18T15:15:45.661Z,9.76
2023-02-18T15:18:34.726Z,9.78
2023-02-18T15:21:05.505Z,9.75
2023-02-18T15:23:37.820Z,9.71
2023-02-18T15:26:10.383Z,9.77
2023-02-18T15:28:43.125Z,9.64
2023-02-18T15:31:15.368Z,9.63
2023-02-18T15:33:48.051Z,9.59
2023-02-18T15:36:16.511Z,9.60
2023-02-18T15:38:44.766Z,9.52
2023-02-18T15:41:18.844Z,9.51
2023-02-18T15:43:57.204Z,9.53
2023-02-18T15:46:26.879Z,9.54
2023-02-18T15:48:56.853Z,9.51
2023-02-18T15:51:31.061Z,9.52
2023-02-18T15:54:01.833Z,9.51
2023-02-18T15:56:43.896Z,9.46
2023-02-18T15:59:46.205Z,9.48
2023-02-18T16:02:22.524Z,9.42
2023-02-18T16:04:58.329Z,9.40
2023-02-18T16:07:30.365Z,9.44
2023-02-18T16:10:15.090Z,9.44
2023-02-18T16:12:48.886Z,9.42
2023-02-18T16:15:23.524Z,9.40
2023-02-18T16:17:52.177Z,9.38
2023-02-18T16:20:22.486Z,9.39
2023-02-18T16:22:55.052Z,9.36
2023-02-18T16:25:27.958Z,9.37
2023-02-18T16:28:04.142Z,9.31
2023-02-18T16:30:34.733Z,9.31
2023-02-18T16:33:02.488Z,9.30
2023-02-18T16:35:43.981Z,9.27
2023-02-18T16:38:19.927Z,9.26
2023-02-18T16:40:47.937Z,9.26
2023-02-18T16:43:18.098Z,9.27
2023-02-18T16:45:54.128Z,9.30
2023-02-18T16:48:33.726Z,9.27
2023-02-18T16:51:05.409Z,9.30
2023-02-18T16:53:34.358Z,9.28
2023-02-18T16:56:30.277Z,9.26
2023-02-18T16:59:04.459Z,9.25
2023-02-18T17:01:44.520Z,9.25
2023-02-18T17:04:25.386Z,9.23
2023-02-18T17:06:54.159Z,9.23
2023-02-18T17:09:24.343Z,9.25
2023-02-18T17:12:06.192Z,9.24
2023-02-18T17:14:49.819Z,9.22
2023-02-18T17:17:25.320Z,9.20
2023-02-18T17:19:53.676Z,9.21
2023-02-18T17:22:22.955Z,9.21
2023-02-18T17:24:51.941Z,9.19
2023-02-18T17:27:35.388Z,9.21
2023-02-18T17:30:07.135Z,9.21
2023-02-18T17:32:38.177Z,9.23
2023-02-18T17:35:10.292Z,9.21
2023-02-18T17:37:39.272Z,9.22
2023-02-18T17:40:10.425Z,9.20
2023-02-18T17:42:38.194Z,9.21
2023-02-18T17:45:30.485Z,9.18
2023-02-18T17:47:59.559Z,9.17
2023-02-18T17:50:28.522Z,9.14
2023-02-18T17:52:56.483Z,9.12
2023-02-18T17:55:31.400Z,9.09
2023-02-18T17:58:00.056Z,9.12
2023-02-18T18:00:38.196Z,9.14
2023-02-18T18:03:06.681Z,9.12
2023-02-18T18:05:37.599Z,9.14
2023-02-18T18:08:48.887Z,9.11
2023-02-18T18:11:28.481Z,9.14
2023-02-18T18:14:05.477Z,9.10
2023-02-18T18:16:36.597Z,9.14
2023-02-18T18:19:05.267Z,9.13
2023-02-18T18:21:43.702Z,9.15
2023-02-18T18:24:13.214Z,9.13
2023-02-18T18:26:41.314Z,9.13
2023-02-18T18:29:09.917Z,9.11
2023-02-18T18:31:58.016Z,9.10
2023-02-18T18:34:26.940Z,9.13
2023-02-18T18:36:55.359Z,9.13
2023-02-18T18:39:23.636Z,9.11
2023-02-18T18:41:52.391Z,9.12
2023-02-18T18:44:26.900Z,9.11
2023-02-18T18:46:56.104Z,9.09
2023-02-18T18:49:24.149Z,9.08
2023-02-18T18:51:52.758Z,9.13
2023-02-18T18:54:20.560Z,9.14
2023-02-18T18:56:51.227Z,9.15
2023-02-18T18:59:19.795Z,9.14
2023-02-18T19:01:47.143Z,9.16
2023-02-18T19:04:14.915Z,9.17
2023-02-18T19:06:42.387Z,9.17
2023-02-18T19:09:10.908Z,9.15
2023-02-18T19:11:38.507Z,9.15
2023-02-18T19:14:06.158Z,9.13
2023-02-18T19:16:38.043Z,9.12
2023-02-18T19:19:06.181Z,9.10
2023-02-18T19:21:35.028Z,9.10
2023-02-18T19:24:03.803Z,9.08
2023-02-18T19:26:31.682Z,9.08
2023-02-18T19:28:59.076Z,9.05
2023-02-18T19:31:26.958Z,9.07
2023-02-18T19:33:54.672Z,9.06
2023-02-18T19:36:22.028Z,9.07
2023-02-18T19:38:50.566Z,9.06
2023-02-18T19:41:18.041Z,9.05
2023-02-18T19:43:47.087Z,9.04
2023-02-18T19:46:17.147Z,9.02
2023-02-18T19:48:49.873Z,9.02
2023-02-18T19:51:17.515Z,9.03
2023-02-18T19:53:46.315Z,8.99
2023-02-18T19:56:13.545Z,8.98
2023-02-18T19:58:41.306Z,8.96
2023-02-18T20:01:16.640Z,8.95
2023-02-18T20:03:44.579Z,8.92
2023-02-18T20:06:19.974Z,8.92
2023-02-18T20:08:47.641Z,8.95
2023-02-18T20:11:14.988Z,8.91
2023-02-18T20:13:42.685Z,8.91
2023-02-18T20:16:11.080Z,8.91
2023-02-18T20:18:38.827Z,8.91
2023-02-18T20:21:06.336Z,8.90
2023-02-18T20:23:33.627Z,8.89
2023-02-18T20:26:04.427Z,8.91
2023-02-18T20:28:31.895Z,8.92
2023-02-18T20:31:12.002Z,8.92
2023-02-18T20:33:40.735Z,8.95
2023-02-18T20:36:08.800Z,8.95
2023-02-18T20:38:37.780Z,8.95
2023-02-18T20:41:15.098Z,8.95
2023-02-18T20:43:42.902Z,8.95
2023-02-18T20:46:13.441Z,8.95
2023-02-18T20:48:41.154Z,8.93
